Time;durP1;ratioP1;P1;durP2;ratioP2;P2;SDS_P1;SDS_P2;PMS_P1;PMS_P2;Temp;Humidity;BMP_temperature;BMP_pressure;BME280_temperature;BME280_humidity;BME280_pressure;Samples;Min_cycle;Max_cycle;Signal;HPM_P1;HPM_P2
2022/10/16 00:01:40;;;;;;;9.88;4.40;;;;;;;;;;5057384;27;20417;-70
2022/10/16 00:04:07;;;;;;;9.45;4.93;;;;;;;;;;5057982;27;20041;-70
2022/10/16 00:06:33;;;;;;;9.80;4.35;;;;;;;;;;5054760;27;20048;-70
2022/10/16 00:09:00;;;;;;;10.55;4.25;;;;;;;;;;5057160;27;20040;-70
2022/10/16 00:11:28;;;;;;;9.55;4.60;;;;;;;;;;5057846;27;20054;-70
2022/10/16 00:13:59;;;;;;;8.05;4.72;;;;;;;;;;5048498;28;20497;-69
2022/10/16 00:16:26;;;;;;;9.50;4.72;;;;;;;;;;5057053;27;20178;-69
2022/10/16 00:18:53;;;;;;;9.50;4.75;;;;;;;;;;5057768;27;20393;-68
2022/10/16 00:21:21;;;;;;;7.80;4.35;;;;;;;;;;5057392;27;20059;-71
2022/10/16 00:23:50;;;;;;;9.15;4.53;;;;;;;;;;5057692;27;20143;-68
2022/10/16 00:26:17;;;;;;;10.05;5.28;;;;;;;;;;5057508;27;20171;-68
2022/10/16 00:28:46;;;;;;;10.65;5.03;;;;;;;;;;5056031;27;20044;-68
2022/10/16 00:31:16;;;;;;;15.80;6.57;;;;;;;;;;5057671;27;20063;-67
2022/10/16 00:33:43;;;;;;;11.30;5.20;;;;;;;;;;5056979;27;20036;-68
2022/10/16 00:36:11;;;;;;;8.98;4.95;;;;;;;;;;5057330;27;20041;-69
2022/10/16 00:38:38;;;;;;;10.40;4.68;;;;;;;;;;5056001;27;20040;-69
2022/10/16 00:41:06;;;;;;;10.73;4.80;;;;;;;;;;5057835;27;20052;-70
2022/10/16 00:43:52;;;;;;;10.32;4.80;;;;;;;;;;5056489;27;20273;-69
2022/10/16 00:46:23;;;;;;;8.38;5.03;;;;;;;;;;5057240;27;20048;-70
2022/10/16 00:48:58;;;;;;;10.82;5.05;;;;;;;;;;5056575;27;20052;-69
2022/10/16 00:51:28;;;;;;;9.63;5.20;;;;;;;;;;5055943;27;20589;-69
2022/10/16 00:53:56;;;;;;;11.18;5.68;;;;;;;;;;5056862;27;20044;-70
2022/10/16 00:56:22;;;;;;;18.02;6.20;;;;;;;;;;5056005;27;20362;-69
2022/10/16 00:58:49;;;;;;;15.63;5.72;;;;;;;;;;5056270;27;20436;-70
2022/10/16 01:01:16;;;;;;;11.82;5.72;;;;;;;;;;5056555;27;20041;-70
2022/10/16 01:03:42;;;;;;;11.52;6.15;;;;;;;;;;5056369;27;20029;-70
2022/10/16 01:06:14;;;;;;;11.43;5.85;;;;;;;;;;5056357;27;20440;-68
2022/10/16 01:08:50;;;;;;;16.88;7.00;;;;;;;;;;5054947;27;20041;-68
2022/10/16 01:11:17;;;;;;;12.93;6.38;;;;;;;;;;5056654;27;20040;-72
2022/10/16 01:13:46;;;;;;;12.23;6.53;;;;;;;;;;5056499;27;20045;-72
2022/10/16 01:16:20;;;;;;;13.00;6.63;;;;;;;;;;5056870;27;20043;-72
2022/10/16 01:18:51;;;;;;;12.50;7.10;;;;;;;;;;5064140;28;20055;-69
2022/10/16 01:21:23;;;;;;;13.63;6.80;;;;;;;;;;5077193;27;20824;-70
2022/10/16 01:23:59;;;;;;;11.67;6.43;;;;;;;;;;5058854;28;20123;-69
2022/10/16 01:26:29;;;;;;;14.60;6.60;;;;;;;;;;5057636;27;20312;-69
2022/10/16 01:28:57;;;;;;;10.63;5.93;;;;;;;;;;5060071;27;20044;-69
2022/10/16 01:31:27;;;;;;;12.70;6.25;;;;;;;;;;5057501;28;20582;-69
2022/10/16 01:34:09;;;;;;;12.90;6.25;;;;;;;;;;5058007;28;20469;-69
2022/10/16 01:36:41;;;;;;;16.42;6.65;;;;;;;;;;5056601;28;20048;-70
2022/10/16 01:39:09;;;;;;;13.50;6.57;;;;;;;;;;5055966;28;20608;-70
2022/10/16 01:41:40;;;;;;;20.08;6.32;;;;;;;;;;5056544;28;20050;-69
2022/10/16 01:44:12;;;;;;;12.80;6.25;;;;;;;;;;5056261;28;20040;-70
2022/10/16 01:46:40;;;;;;;14.40;6.57;;;;;;;;;;5048546;28;20128;-70
2022/10/16 01:49:08;;;;;;;14.35;6.30;;;;;;;;;;5052074;28;20072;-70
2022/10/16 01:51:36;;;;;;;11.70;6.10;;;;;;;;;;5056270;28;20039;-71
2022/10/16 01:54:03;;;;;;;13.25;6.63;;;;;;;;;;5055912;28;20037;-71
2022/10/16 01:56:30;;;;;;;13.80;6.90;;;;;;;;;;5088097;27;20036;-70
2022/10/16 01:58:59;;;;;;;11.68;6.72;;;;;;;;;;5055730;28;20289;-70
2022/10/16 02:01:27;;;;;;;11.98;6.00;;;;;;;;;;5055413;28;20465;-71
2022/10/16 02:03:57;;;;;;;14.75;6.43;;;;;;;;;;5056908;28;20052;-69
2022/10/16 02:06:25;;;;;;;14.38;6.30;;;;;;;;;;5055703;28;20040;-70
2022/10/16 02:08:52;;;;;;;12.88;5.93;;;;;;;;;;5056126;28;20048;-70
2022/10/16 02:11:18;;;;;;;11.68;7.00;;;;;;;;;;5056686;28;20049;-70
2022/10/16 02:13:56;;;;;;;12.25;6.38;;;;;;;;;;5061542;28;20043;-72
2022/10/16 02:16:33;;;;;;;13.80;6.97;;;;;;;;;;5053444;28;20145;-70
2022/10/16 02:18:59;;;;;;;11.90;6.80;;;;;;;;;;5055798;28;20523;-70
2022/10/16 02:21:32;;;;;;;14.02;6.45;;;;;;;;;;5054269;28;20447;-70
2022/10/16 02:24:07;;;;;;;16.30;6.70;;;;;;;;;;5055744;28;20184;-70
2022/10/16 02:26:37;;;;;;;15.73;7.53;;;;;;;;;;5055176;28;20120;-70
2022/10/16 02:29:08;;;;;;;12.13;7.00;;;;;;;;;;5054857;28;20040;-70
2022/10/16 02:31:36;;;;;;;14.00;7.45;;;;;;;;;;5055875;28;20043;-71
2022/10/16 02:34:04;;;;;;;15.05;7.60;;;;;;;;;;5053640;28;20036;-68
2022/10/16 02:36:32;;;;;;;15.57;7.68;;;;;;;;;;5048242;28;20060;-68
2022/10/16 02:39:01;;;;;;;16.02;6.82;;;;;;;;;;5072044;28;20123;-68
2022/10/16 02:41:28;;;;;;;14.23;7.15;;;;;;;;;;5059061;28;20041;-70
2022/10/16 02:43:55;;;;;;;21.00;7.25;;;;;;;;;;5071661;28;20081;-68
2022/10/16 02:46:21;;;;;;;11.88;6.85;;;;;;;;;;5055297;28;20143;-70
2022/10/16 02:48:48;;;;;;;12.82;7.47;;;;;;;;;;5055642;28;20040;-69
2022/10/16 02:51:15;;;;;;;12.48;7.18;;;;;;;;;;5056528;28;20500;-69
2022/10/16 02:53:41;;;;;;;16.77;6.45;;;;;;;;;;5055427;28;20041;-70
2022/10/16 02:56:08;;;;;;;15.60;7.40;;;;;;;;;;5056852;28;20040;-68
2022/10/16 02:58:35;;;;;;;16.65;7.43;;;;;;;;;;5072122;28;20085;-69
2022/10/16 03:01:01;;;;;;;14.55;7.53;;;;;;;;;;5060543;28;20033;-69
2022/10/16 03:03:28;;;;;;;13.07;6.88;;;;;;;;;;5058260;27;20036;-70
2022/10/16 03:05:55;;;;;;;14.02;7.25;;;;;;;;;;5058845;28;20069;-70
2022/10/16 03:08:24;;;;;;;13.15;7.13;;;;;;;;;;5055154;28;20158;-69
2022/10/16 03:10:52;;;;;;;14.20;7.72;;;;;;;;;;5056780;28;20033;-71
2022/10/16 03:13:20;;;;;;;12.68;6.65;;;;;;;;;;5058591;28;20044;-72
2022/10/16 03:15:49;;;;;;;12.88;6.80;;;;;;;;;;5059093;28;20036;-70
2022/10/16 03:18:16;;;;;;;13.25;6.50;;;;;;;;;;5077798;27;20028;-71
2022/10/16 03:20:45;;;;;;;13.38;6.78;;;;;;;;;;5065619;27;20106;-71
2022/10/16 03:23:12;;;;;;;14.40;7.07;;;;;;;;;;5056274;28;20033;-69
2022/10/16 03:25:39;;;;;;;12.65;7.13;;;;;;;;;;5055301;28;20036;-71
2022/10/16 03:28:06;;;;;;;10.70;6.40;;;;;;;;;;5055572;28;20032;-70
2022/10/16 03:30:33;;;;;;;11.02;6.05;;;;;;;;;;5055400;28;20096;-69
2022/10/16 03:32:59;;;;;;;13.48;7.03;;;;;;;;;;5060565;28;20047;-69
2022/10/16 03:35:26;;;;;;;15.25;7.53;;;;;;;;;;5059022;28;20037;-69
2022/10/16 03:37:52;;;;;;;12.50;6.45;;;;;;;;;;5058585;28;20065;-68
2022/10/16 03:40:19;;;;;;;11.60;7.22;;;;;;;;;;5058467;28;20051;-69
2022/10/16 03:42:46;;;;;;;11.32;7.20;;;;;;;;;;5058423;28;20045;-67
2022/10/16 03:45:13;;;;;;;14.73;6.72;;;;;;;;;;5058338;28;20040;-68
2022/10/16 03:47:40;;;;;;;17.77;7.53;;;;;;;;;;5056162;28;20040;-69
2022/10/16 03:50:07;;;;;;;12.50;7.22;;;;;;;;;;5046105;28;20445;-68
2022/10/16 03:52:33;;;;;;;12.50;6.80;;;;;;;;;;5066962;28;20091;-70
2022/10/16 03:55:00;;;;;;;11.50;7.05;;;;;;;;;;5058207;27;20149;-69
2022/10/16 03:57:26;;;;;;;13.60;7.00;;;;;;;;;;5056850;28;20047;-69
2022/10/16 03:59:53;;;;;;;13.88;7.13;;;;;;;;;;5050674;28;20036;-69
2022/10/16 04:02:20;;;;;;;14.20;7.47;;;;;;;;;;5061411;27;20036;-69
2022/10/16 04:04:46;;;;;;;22.00;7.47;;;;;;;;;;5058312;28;20032;-68
2022/10/16 04:07:13;;;;;;;14.43;7.15;;;;;;;;;;5058019;28;20561;-69
2022/10/16 04:09:40;;;;;;;13.57;7.50;;;;;;;;;;5057328;28;20052;-68
2022/10/16 04:12:06;;;;;;;18.70;7.45;;;;;;;;;;5058206;28;20055;-69
2022/10/16 04:14:33;;;;;;;16.42;7.50;;;;;;;;;;5059105;28;22309;-70
2022/10/16 04:17:00;;;;;;;16.42;8.15;;;;;;;;;;5060465;28;20414;-71
2022/10/16 04:19:27;;;;;;;21.48;8.02;;;;;;;;;;5057946;28;20045;-70
2022/10/16 04:21:53;;;;;;;15.15;8.02;;;;;;;;;;5059575;28;20050;-71
2022/10/16 04:24:20;;;;;;;14.48;7.80;;;;;;;;;;5056622;28;20052;-70
2022/10/16 04:26:47;;;;;;;16.98;7.30;;;;;;;;;;5056827;28;20611;-70
2022/10/16 04:29:13;;;;;;;12.88;7.47;;;;;;;;;;5058095;28;20046;-69
2022/10/16 04:31:40;;;;;;;22.63;8.05;;;;;;;;;;5056473;28;20045;-70
2022/10/16 04:34:06;;;;;;;15.35;8.32;;;;;;;;;;5056437;28;20116;-70
2022/10/16 04:36:33;;;;;;;18.95;7.68;;;;;;;;;;5063542;27;20300;-70
2022/10/16 04:39:09;;;;;;;17.63;7.70;;;;;;;;;;5074392;28;20040;-71
2022/10/16 04:41:36;;;;;;;19.80;8.73;;;;;;;;;;5076658;27;20063;-70
2022/10/16 04:44:03;;;;;;;11.93;8.02;;;;;;;;;;5076310;27;20445;-69
2022/10/16 04:46:29;;;;;;;15.40;8.07;;;;;;;;;;5057532;27;20130;-72
2022/10/16 04:48:56;;;;;;;15.18;8.15;;;;;;;;;;5046191;28;20055;-69
2022/10/16 04:51:23;;;;;;;15.60;8.40;;;;;;;;;;5071424;28;20839;-70
2022/10/16 04:53:49;;;;;;;15.25;8.02;;;;;;;;;;5058277;28;20046;-69
2022/10/16 04:56:17;;;;;;;18.80;8.77;;;;;;;;;;5065409;28;20170;-69
2022/10/16 04:58:46;;;;;;;16.70;8.30;;;;;;;;;;5054952;28;20033;-69
2022/10/16 05:01:13;;;;;;;15.52;8.80;;;;;;;;;;5072551;28;20129;-69
2022/10/16 05:03:40;;;;;;;14.35;8.50;;;;;;;;;;5056744;28;20123;-69
2022/10/16 05:06:07;;;;;;;16.65;8.52;;;;;;;;;;5057242;28;20079;-68
2022/10/16 05:08:34;;;;;;;15.38;8.90;;;;;;;;;;5055829;27;20036;-67
2022/10/16 05:11:01;;;;;;;17.80;8.35;;;;;;;;;;5056223;28;20044;-71
2022/10/16 05:13:28;;;;;;;17.50;8.95;;;;;;;;;;5054740;28;20036;-67
2022/10/16 05:15:55;;;;;;;15.40;8.43;;;;;;;;;;5055603;28;20049;-69
2022/10/16 05:18:21;;;;;;;16.48;9.15;;;;;;;;;;5056394;28;20071;-70
2022/10/16 05:20:48;;;;;;;18.92;9.45;;;;;;;;;;5057025;28;20040;-69
2022/10/16 05:23:15;;;;;;;22.75;9.13;;;;;;;;;;5055191;28;20042;-70
2022/10/16 05:25:41;;;;;;;16.77;7.93;;;;;;;;;;5056794;28;20500;-69
2022/10/16 05:28:08;;;;;;;16.05;8.85;;;;;;;;;;5056652;28;20094;-70
2022/10/16 05:30:34;;;;;;;20.35;9.60;;;;;;;;;;5055870;28;20403;-70
2022/10/16 05:33:01;;;;;;;17.38;9.57;;;;;;;;;;5066786;28;20093;-70
2022/10/16 05:35:27;;;;;;;16.20;8.90;;;;;;;;;;5055569;28;20373;-71
2022/10/16 05:37:54;;;;;;;15.85;8.55;;;;;;;;;;5055690;28;20082;-70
2022/10/16 05:40:21;;;;;;;21.33;9.35;;;;;;;;;;5055228;28;20086;-71
2022/10/16 05:42:48;;;;;;;17.23;8.95;;;;;;;;;;5056284;28;20048;-70
2022/10/16 05:45:14;;;;;;;20.05;9.15;;;;;;;;;;5056640;28;20060;-71
2022/10/16 05:47:41;;;;;;;18.23;9.20;;;;;;;;;;5055900;28;20426;-69
2022/10/16 05:50:08;;;;;;;13.13;8.13;;;;;;;;;;5056966;28;20040;-71
2022/10/16 05:52:34;;;;;;;19.70;8.93;;;;;;;;;;5056922;28;20048;-69
2022/10/16 05:55:01;;;;;;;14.65;8.30;;;;;;;;;;5057035;28;20044;-70
2022/10/16 05:57:28;;;;;;;16.45;8.60;;;;;;;;;;5054638;28;20040;-71
2022/10/16 05:59:54;;;;;;;17.48;8.98;;;;;;;;;;5059060;28;20421;-70
2022/10/16 06:02:21;;;;;;;16.33;8.82;;;;;;;;;;5062103;27;20280;-70
2022/10/16 06:04:47;;;;;;;14.35;8.70;;;;;;;;;;5064211;27;20081;-70
2022/10/16 06:07:14;;;;;;;18.73;9.50;;;;;;;;;;5055816;28;20048;-70
2022/10/16 06:09:41;;;;;;;20.35;8.73;;;;;;;;;;5056014;28;20047;-69
2022/10/16 06:12:07;;;;;;;14.80;8.32;;;;;;;;;;5064597;28;20176;-70
2022/10/16 06:14:34;;;;;;;21.55;8.73;;;;;;;;;;5075671;27;20051;-70
2022/10/16 06:17:00;;;;;;;21.70;8.65;;;;;;;;;;5069171;27;20512;-71
2022/10/16 06:19:27;;;;;;;19.17;9.38;;;;;;;;;;5073331;27;20047;-69
2022/10/16 06:21:53;;;;;;;16.20;8.55;;;;;;;;;;5076778;27;20548;-70
2022/10/16 06:24:20;;;;;;;19.63;8.70;;;;;;;;;;5061278;27;20040;-70
2022/10/16 06:26:47;;;;;;;18.83;9.15;;;;;;;;;;5055177;28;20404;-70
2022/10/16 06:29:13;;;;;;;17.23;8.75;;;;;;;;;;5056833;28;20040;-70
2022/10/16 06:31:40;;;;;;;21.25;8.75;;;;;;;;;;5055230;28;20044;-70
2022/10/16 06:34:09;;;;;;;23.23;8.50;;;;;;;;;;5055744;28;20129;-69
2022/10/16 06:36:35;;;;;;;18.30;8.75;;;;;;;;;;5053650;28;20127;-70
2022/10/16 06:39:02;;;;;;;16.02;8.70;;;;;;;;;;5056099;28;20079;-70
2022/10/16 06:41:29;;;;;;;16.75;8.35;;;;;;;;;;5054650;28;20080;-71
2022/10/16 06:43:55;;;;;;;17.30;8.32;;;;;;;;;;5056301;28;20086;-71
2022/10/16 06:46:23;;;;;;;21.17;9.57;;;;;;;;;;5053608;28;20068;-69
2022/10/16 06:48:50;;;;;;;19.00;8.75;;;;;;;;;;5054515;28;20044;-70
2022/10/16 06:51:18;;;;;;;18.08;8.93;;;;;;;;;;5054769;28;20453;-70
2022/10/16 06:53:47;;;;;;;20.17;8.95;;;;;;;;;;5055071;28;20078;-69
2022/10/16 06:56:14;;;;;;;17.55;9.27;;;;;;;;;;5054831;28;20139;-70
2022/10/16 06:58:41;;;;;;;22.20;9.13;;;;;;;;;;5054889;28;20043;-69
2022/10/16 07:01:08;;;;;;;19.40;8.90;;;;;;;;;;5055222;28;20087;-71
2022/10/16 07:03:37;;;;;;;15.48;8.63;;;;;;;;;;5054183;28;20041;-70
2022/10/16 07:06:05;;;;;;;15.55;8.27;;;;;;;;;;5056725;28;20456;-70
2022/10/16 07:08:35;;;;;;;14.80;7.80;;;;;;;;;;5061502;27;20086;-69
2022/10/16 07:11:06;;;;;;;21.60;8.02;;;;;;;;;;5059175;28;20056;-70
2022/10/16 07:13:36;;;;;;;17.13;8.75;;;;;;;;;;5058577;28;20510;-70
2022/10/16 07:16:09;;;;;;;16.15;8.55;;;;;;;;;;5060027;28;20043;-69
2022/10/16 07:18:38;;;;;;;14.15;8.93;;;;;;;;;;5059041;28;20036;-70
2022/10/16 07:21:09;;;;;;;16.25;8.18;;;;;;;;;;5059423;28;20052;-70
2022/10/16 07:23:35;;;;;;;16.38;9.00;;;;;;;;;;5058679;28;20594;-70
2022/10/16 07:26:02;;;;;;;16.15;8.70;;;;;;;;;;5057707;28;20553;-70
2022/10/16 07:28:29;;;;;;;18.38;7.97;;;;;;;;;;5058063;28;20505;-71
2022/10/16 07:30:56;;;;;;;15.82;7.68;;;;;;;;;;5073828;28;20079;-71
2022/10/16 07:33:23;;;;;;;16.25;9.07;;;;;;;;;;5057213;28;20504;-70
2022/10/16 07:35:52;;;;;;;16.73;8.57;;;;;;;;;;5059425;28;20051;-70
2022/10/16 07:38:19;;;;;;;18.17;9.88;;;;;;;;;;5057184;28;20186;-70
2022/10/16 07:40:46;;;;;;;15.48;8.18;;;;;;;;;;5059006;28;20079;-71
2022/10/16 07:43:13;;;;;;;15.60;8.48;;;;;;;;;;5057429;28;20045;-70
2022/10/16 07:45:47;;;;;;;16.95;8.98;;;;;;;;;;5057577;28;20119;-71
2022/10/16 07:48:14;;;;;;;18.08;8.38;;;;;;;;;;5057693;28;20033;-69
2022/10/16 07:50:41;;;;;;;16.65;9.05;;;;;;;;;;5057681;28;20128;-70
2022/10/16 07:53:07;;;;;;;14.48;7.50;;;;;;;;;;5057995;28;20052;-70
2022/10/16 07:55:34;;;;;;;18.75;8.95;;;;;;;;;;5089557;28;20032;-70
2022/10/16 07:58:01;;;;;;;16.77;8.90;;;;;;;;;;5057254;28;20629;-70
2022/10/16 08:00:27;;;;;;;14.95;8.32;;;;;;;;;;5057599;28;20135;-69
2022/10/16 08:02:54;;;;;;;15.32;8.38;;;;;;;;;;5058438;28;20064;-68
2022/10/16 08:05:20;;;;;;;16.27;8.90;;;;;;;;;;5058267;28;20052;-70
2022/10/16 08:07:50;;;;;;;15.85;8.23;;;;;;;;;;5056875;28;20071;-70
2022/10/16 08:10:18;;;;;;;20.60;9.20;;;;;;;;;;5058101;28;20041;-70
2022/10/16 08:12:44;;;;;;;17.25;8.52;;;;;;;;;;5057319;28;20090;-69
2022/10/16 08:15:11;;;;;;;20.85;8.73;;;;;;;;;;5058273;28;20548;-69
2022/10/16 08:17:38;;;;;;;16.33;8.98;;;;;;;;;;5054803;28;20044;-69
2022/10/16 08:20:05;;;;;;;17.25;8.80;;;;;;;;;;5057854;28;20048;-70
2022/10/16 08:22:32;;;;;;;20.70;8.77;;;;;;;;;;5056644;28;20041;-69
2022/10/16 08:24:58;;;;;;;14.88;8.68;;;;;;;;;;5057420;28;20044;-69
2022/10/16 08:27:25;;;;;;;19.48;9.15;;;;;;;;;;5056219;28;20481;-69
2022/10/16 08:29:52;;;;;;;19.35;9.57;;;;;;;;;;5057179;28;20118;-69
2022/10/16 08:32:19;;;;;;;15.60;8.10;;;;;;;;;;5056643;28;20028;-70
2022/10/16 08:34:45;;;;;;;20.40;9.30;;;;;;;;;;5057677;28;20533;-69
2022/10/16 08:37:13;;;;;;;18.00;8.73;;;;;;;;;;5054595;28;20068;-70
2022/10/16 08:39:40;;;;;;;18.92;8.60;;;;;;;;;;5056618;28;20032;-70
2022/10/16 08:42:25;;;;;;;17.85;8.80;;;;;;;;;;5057709;28;20413;-71
2022/10/16 08:45:05;;;;;;;21.15;8.82;;;;;;;;;;5056404;28;20424;-71
2022/10/16 08:47:44;;;;;;;16.75;9.07;;;;;;;;;;5054672;28;20080;-69
2022/10/16 08:50:13;;;;;;;14.55;8.27;;;;;;;;;;5057429;28;20040;-70
2022/10/16 08:52:41;;;;;;;18.25;8.85;;;;;;;;;;5056624;28;20498;-70
2022/10/16 08:55:17;;;;;;;21.17;8.80;;;;;;;;;;5057339;28;20094;-70
2022/10/16 08:57:44;;;;;;;16.42;9.07;;;;;;;;;;5055867;28;20100;-69
2022/10/16 09:00:14;;;;;;;18.13;9.50;;;;;;;;;;5057401;28;20436;-70
2022/10/16 09:02:53;;;;;;;15.60;9.40;;;;;;;;;;5056518;28;20034;-70
2022/10/16 09:05:31;;;;;;;16.85;8.88;;;;;;;;;;5057895;28;20170;-69
2022/10/16 09:07:58;;;;;;;18.42;8.63;;;;;;;;;;5055681;28;20049;-70
2022/10/16 09:10:45;;;;;;;19.73;9.10;;;;;;;;;;5056816;28;20047;-69
2022/10/16 09:13:19;;;;;;;23.48;9.18;;;;;;;;;;5056834;28;20041;-69
2022/10/16 09:15:49;;;;;;;18.38;9.55;;;;;;;;;;5057340;28;20584;-69
2022/10/16 09:18:15;;;;;;;16.38;10.02;;;;;;;;;;5056884;28;21706;-69
2022/10/16 09:21:00;;;;;;;20.75;10.18;;;;;;;;;;5056347;28;21572;-70
2022/10/16 09:23:27;;;;;;;26.52;10.70;;;;;;;;;;5087960;28;20799;-71
2022/10/16 09:25:56;;;;;;;24.45;10.57;;;;;;;;;;5057819;28;20382;-71
2022/10/16 09:28:22;;;;;;;21.45;11.63;;;;;;;;;;5056728;28;20098;-70
2022/10/16 09:30:49;;;;;;;22.55;13.45;;;;;;;;;;5057791;28;20039;-71
2022/10/16 09:33:17;;;;;;;24.17;12.48;;;;;;;;;;5057450;28;20046;-71
2022/10/16 09:35:45;;;;;;;22.10;11.05;;;;;;;;;;5056748;28;20509;-71
2022/10/16 09:38:23;;;;;;;21.98;10.88;;;;;;;;;;5057899;28;20071;-71
2022/10/16 09:40:50;;;;;;;19.30;11.30;;;;;;;;;;5050161;28;20036;-70
2022/10/16 09:43:28;;;;;;;18.48;10.57;;;;;;;;;;5056454;28;20557;-70
2022/10/16 09:45:59;;;;;;;23.83;11.98;;;;;;;;;;5053875;28;20698;-73
2022/10/16 09:48:28;;;;;;;20.30;10.77;;;;;;;;;;5056263;28;20788;-71
2022/10/16 09:50:58;;;;;;;22.33;11.77;;;;;;;;;;5055606;28;20035;-71
2022/10/16 09:53:27;;;;;;;24.30;11.48;;;;;;;;;;5056182;28;20837;-71
2022/10/16 09:55:54;;;;;;;19.63;10.23;;;;;;;;;;5055653;28;20129;-71
2022/10/16 09:58:24;;;;;;;21.85;11.00;;;;;;;;;;5056091;28;20102;-70
2022/10/16 10:00:54;;;;;;;19.70;11.13;;;;;;;;;;5056297;28;20040;-70
2022/10/16 10:03:38;;;;;;;20.92;10.88;;;;;;;;;;5056287;28;20042;-70
2022/10/16 10:06:04;;;;;;;;;;;;;;;;;;5055387;28;20041;-69
2022/10/16 10:08:31;;;;;;;22.20;11.13;;;;;;;;;;5056204;28;19920;-69
2022/10/16 10:10:58;;;;;;;23.92;10.65;;;;;;;;;;5055576;28;20044;-70
2022/10/16 10:13:26;;;;;;;19.98;10.75;;;;;;;;;;5055233;28;20127;-69
2022/10/16 10:15:53;;;;;;;16.58;9.82;;;;;;;;;;5055857;28;20064;-69
2022/10/16 10:18:22;;;;;;;16.13;9.48;;;;;;;;;;5056054;28;20044;-69
2022/10/16 10:21:02;;;;;;;23.30;9.52;;;;;;;;;;5055908;28;20090;-70
2022/10/16 10:23:30;;;;;;;23.02;9.45;;;;;;;;;;5055773;28;20039;-70
2022/10/16 10:26:35;;;;;;;19.27;9.55;;;;;;;;;;5052956;28;20028;-71
2022/10/16 10:29:08;;;;;;;17.35;8.73;;;;;;;;;;5012625;28;20091;-71
2022/10/16 10:31:34;;;;;;;18.63;8.70;;;;;;;;;;5013154;28;20052;-70
2022/10/16 10:34:21;;;;;;;14.05;7.45;;;;;;;;;;5025766;28;20083;-70
2022/10/16 10:36:53;;;;;;;11.85;6.85;;;;;;;;;;5057538;28;20078;-70
2022/10/16 10:39:26;;;;;;;15.32;6.50;;;;;;;;;;5056050;28;20043;-71
2022/10/16 10:42:06;;;;;;;10.60;6.15;;;;;;;;;;5056223;28;20048;-70
2022/10/16 10:44:42;;;;;;;11.85;5.45;;;;;;;;;;5058331;28;20370;-72
2022/10/16 10:47:14;;;;;;;11.25;5.50;;;;;;;;;;5059103;28;20093;-71
2022/10/16 10:49:44;;;;;;;12.18;5.88;;;;;;;;;;5052244;28;20462;-71
2022/10/16 10:52:21;;;;;;;11.38;5.20;;;;;;;;;;5067312;28;20058;-70
2022/10/16 10:54:56;;;;;;;11.30;5.00;;;;;;;;;;5058960;28;20051;-70
2022/10/16 10:57:29;;;;;;;9.02;4.75;;;;;;;;;;5059092;28;20582;-70
2022/10/16 11:00:17;;;;;;;9.10;5.13;;;;;;;;;;5059985;28;20043;-71
2022/10/16 11:03:04;;;;;;;11.95;4.45;;;;;;;;;;5059365;28;20066;-69
2022/10/16 11:05:36;;;;;;;7.97;4.45;;;;;;;;;;5057375;28;20581;-70
2022/10/16 11:08:15;;;;;;;8.13;4.82;;;;;;;;;;5058947;28;20056;-70
2022/10/16 11:10:51;;;;;;;8.80;4.63;;;;;;;;;;5059195;28;20075;-71
2022/10/16 11:13:56;;;;;;;7.43;3.80;;;;;;;;;;5059375;28;20742;-71
2022/10/16 11:16:30;;;;;;;15.68;4.25;;;;;;;;;;4988167;28;20050;-72
2022/10/16 11:19:15;;;;;;;8.52;4.07;;;;;;;;;;4980840;28;20442;-71
2022/10/16 11:21:50;;;;;;;8.75;3.92;;;;;;;;;;5038074;28;20313;-70
2022/10/16 11:24:36;;;;;;;10.02;3.60;;;;;;;;;;5059747;28;20044;-70
2022/10/16 11:27:08;;;;;;;11.13;4.72;;;;;;;;;;5059117;28;20233;-70
2022/10/16 11:29:36;;;;;;;7.40;4.10;;;;;;;;;;5067637;27;20040;-71
2022/10/16 11:32:08;;;;;;;8.70;4.20;;;;;;;;;;5065830;27;20051;-68
2022/10/16 11:34:45;;;;;;;8.27;3.83;;;;;;;;;;5059913;28;20070;-71
2022/10/16 11:37:17;;;;;;;8.20;4.55;;;;;;;;;;5060228;28;20045;-69
2022/10/16 11:39:44;;;;;;;9.50;4.03;;;;;;;;;;5059950;28;20033;-70
2022/10/16 11:42:12;;;;;;;7.65;3.88;;;;;;;;;;5060838;28;20053;-70
2022/10/16 11:44:45;;;;;;;8.90;3.63;;;;;;;;;;5074282;28;20500;-69
2022/10/16 11:47:27;;;;;;;8.93;4.47;;;;;;;;;;5058434;28;20055;-70
2022/10/16 11:49:57;;;;;;;8.95;4.30;;;;;;;;;;5057458;28;20615;-70
2022/10/16 11:52:29;;;;;;;8.00;4.20;;;;;;;;;;5057884;28;20044;-70
2022/10/16 11:54:59;;;;;;;9.13;4.07;;;;;;;;;;5058102;28;20191;-70
2022/10/16 11:57:28;;;;;;;8.55;4.35;;;;;;;;;;5057507;28;20064;-70
2022/10/16 12:00:01;;;;;;;7.75;4.18;;;;;;;;;;5058252;28;20036;-70
2022/10/16 12:02:45;;;;;;;9.82;4.20;;;;;;;;;;5058280;28;20043;-70
2022/10/16 12:05:38;;;;;;;9.32;4.22;;;;;;;;;;5074750;28;20045;-69
2022/10/16 12:08:13;;;;;;;8.20;4.05;;;;;;;;;;5041629;28;20090;-71
2022/10/16 12:10:41;;;;;;;8.30;4.05;;;;;;;;;;5061200;28;20087;-70
2022/10/16 12:13:28;;;;;;;6.72;3.63;;;;;;;;;;5060271;28;20511;-70
2022/10/16 12:16:05;;;;;;;7.75;3.72;;;;;;;;;;5049952;27;20045;-70
2022/10/16 12:18:32;;;;;;;10.73;3.88;;;;;;;;;;5058543;27;20048;-70
2022/10/16 12:21:04;;;;;;;7.78;4.15;;;;;;;;;;5062047;27;20075;-69
2022/10/16 12:23:31;;;;;;;9.20;4.13;;;;;;;;;;5058240;27;21789;-69
2022/10/16 12:25:59;;;;;;;7.05;4.20;;;;;;;;;;5057820;27;20067;-71
2022/10/16 12:28:48;;;;;;;6.75;3.78;;;;;;;;;;5072491;27;20039;-70
2022/10/16 12:31:14;;;;;;;7.53;3.90;;;;;;;;;;5057943;27;20040;-69
2022/10/16 12:33:42;;;;;;;11.80;3.90;;;;;;;;;;5056912;27;20064;-69
2022/10/16 12:36:17;;;;;;;6.63;3.53;;;;;;;;;;5058347;27;20085;-70
2022/10/16 12:38:52;;;;;;;7.18;3.58;;;;;;;;;;5057929;27;20049;-70
2022/10/16 12:41:37;;;;;;;9.93;3.67;;;;;;;;;;5057837;27;20056;-70
2022/10/16 12:44:04;;;;;;;8.43;3.75;;;;;;;;;;5057442;27;20040;-70
2022/10/16 12:46:32;;;;;;;6.65;3.65;;;;;;;;;;5056734;27;20516;-69
2022/10/16 12:49:07;;;;;;;7.82;3.85;;;;;;;;;;5089037;27;20513;-69
2022/10/16 12:51:33;;;;;;;6.35;3.25;;;;;;;;;;5056916;27;20028;-69
2022/10/16 12:54:13;;;;;;;8.82;4.07;;;;;;;;;;5057700;27;20497;-70
2022/10/16 12:56:52;;;;;;;7.63;3.40;;;;;;;;;;5055105;27;20039;-70
2022/10/16 12:59:21;;;;;;;8.32;3.60;;;;;;;;;;5056846;27;20405;-69
2022/10/16 13:01:58;;;;;;;6.80;3.10;;;;;;;;;;5057368;27;20043;-70
2022/10/16 13:04:34;;;;;;;9.07;3.40;;;;;;;;;;5056392;27;20072;-69
2022/10/16 13:07:16;;;;;;;8.93;3.28;;;;;;;;;;5058061;27;20047;-69
2022/10/16 13:09:48;;;;;;;6.22;3.08;;;;;;;;;;5054366;28;20040;-70
2022/10/16 13:12:27;;;;;;;10.23;3.65;;;;;;;;;;5057046;28;20043;-71
2022/10/16 13:15:05;;;;;;;8.85;3.72;;;;;;;;;;5058128;27;20176;-70
2022/10/16 13:17:34;;;;;;;8.63;2.88;;;;;;;;;;5056720;27;20811;-68
2022/10/16 13:20:07;;;;;;;8.02;3.17;;;;;;;;;;5056535;27;20131;-70
2022/10/16 13:22:34;;;;;;;5.23;2.97;;;;;;;;;;5056955;27;20048;-69
2022/10/16 13:25:09;;;;;;;6.45;3.53;;;;;;;;;;5056572;27;20268;-69
2022/10/16 13:27:49;;;;;;;9.90;3.53;;;;;;;;;;5056006;27;20497;-68
2022/10/16 13:30:20;;;;;;;8.25;3.75;;;;;;;;;;5056089;27;20178;-69
2022/10/16 13:32:48;;;;;;;6.60;3.60;;;;;;;;;;5057967;27;20041;-70
2022/10/16 13:35:22;;;;;;;10.27;3.97;;;;;;;;;;5056953;27;20064;-69
2022/10/16 13:37:49;;;;;;;8.00;3.97;;;;;;;;;;5056194;27;20642;-69
2022/10/16 13:40:20;;;;;;;8.38;3.80;;;;;;;;;;5057025;27;20230;-68
2022/10/16 13:42:47;;;;;;;6.53;3.30;;;;;;;;;;5076647;27;20194;-68
2022/10/16 13:45:27;;;;;;;8.68;3.35;;;;;;;;;;5078690;27;20128;-69
2022/10/16 13:48:05;;;;;;;7.35;3.85;;;;;;;;;;5055951;28;20101;-69
2022/10/16 13:50:31;;;;;;;13.77;4.68;;;;;;;;;;5056524;28;20064;-68
2022/10/16 13:53:07;;;;;;;8.82;3.53;;;;;;;;;;5057315;28;20120;-69
2022/10/16 13:55:34;;;;;;;7.28;3.08;;;;;;;;;;5055958;28;20552;-68
2022/10/16 13:58:13;;;;;;;6.82;3.28;;;;;;;;;;5057844;28;20097;-69
2022/10/16 14:00:40;;;;;;;6.07;3.30;;;;;;;;;;5056005;28;20049;-68
2022/10/16 14:03:17;;;;;;;5.65;3.25;;;;;;;;;;5057328;28;20126;-69
2022/10/16 14:05:48;;;;;;;6.50;3.55;;;;;;;;;;5055967;28;20049;-70
2022/10/16 14:08:14;;;;;;;9.13;4.13;;;;;;;;;;5055745;28;21253;-68
2022/10/16 14:10:42;;;;;;;9.70;4.22;;;;;;;;;;5055386;28;20071;-68
2022/10/16 14:13:14;;;;;;;10.82;4.30;;;;;;;;;;5056170;28;20051;-69
2022/10/16 14:15:40;;;;;;;8.70;4.10;;;;;;;;;;5054795;28;20106;-69
2022/10/16 14:18:07;;;;;;;11.60;4.03;;;;;;;;;;5054713;28;20123;-68
2022/10/16 14:20:35;;;;;;;6.97;3.65;;;;;;;;;;5055385;28;20043;-69
2022/10/16 14:23:03;;;;;;;7.82;3.78;;;;;;;;;;5056911;28;20045;-70
2022/10/16 14:25:31;;;;;;;8.15;4.15;;;;;;;;;;5054804;28;20887;-68
2022/10/16 14:28:15;;;;;;;7.63;3.67;;;;;;;;;;5055044;28;20098;-68
2022/10/16 14:30:51;;;;;;;10.43;4.57;;;;;;;;;;5070378;28;20036;-69
2022/10/16 14:33:22;;;;;;;11.07;4.20;;;;;;;;;;5055719;28;20044;-69
2022/10/16 14:35:58;;;;;;;8.45;3.60;;;;;;;;;;5052139;28;20093;-69
2022/10/16 14:38:25;;;;;;;6.93;3.90;;;;;;;;;;5051819;28;20045;-70
2022/10/16 14:40:52;;;;;;;7.43;3.90;;;;;;;;;;5072289;28;20040;-70
2022/10/16 14:43:22;;;;;;;6.72;3.80;;;;;;;;;;5071645;28;20059;-69
2022/10/16 14:45:53;;;;;;;9.93;4.15;;;;;;;;;;5071602;28;20047;-69
2022/10/16 14:48:20;;;;;;;8.93;4.35;;;;;;;;;;5071665;28;21103;-68
2022/10/16 14:50:47;;;;;;;6.85;3.60;;;;;;;;;;5073158;28;20573;-66